createdAt,value
2022-11-05T00:00:04.406Z,9.50
2022-11-05T00:05:46.251Z,9.50
2022-11-05T00:10:49.406Z,9.60
2022-11-05T00:16:11.153Z,9.50
2022-11-05T00:21:32.429Z,9.60
2022-11-05T00:26:35.037Z,9.60
2022-11-05T00:31:37.771Z,9.70
2022-11-05T00:36:40.300Z,9.70
2022-11-05T00:41:42.805Z,9.80
2022-11-05T00:46:45.976Z,9.80
2022-11-05T00:52:08.486Z,9.80
2022-11-05T00:57:10.918Z,9.70
2022-11-05T01:02:13.702Z,9.70
2022-11-05T01:07:16.251Z,9.60
2022-11-05T01:12:18.943Z,9.40
2022-11-05T01:17:21.390Z,9.30
2022-11-05T01:22:24.265Z,9.30
2022-11-05T01:27:26.852Z,9.20
2022-11-05T01:32:29.421Z,9.20
2022-11-05T01:37:32.162Z,9.10
2022-11-05T01:42:35.099Z,9.00
2022-11-05T01:47:56.383Z,9.00
2022-11-05T01:53:22.203Z,9.10
2022-11-05T01:58:30.516Z,9.00
2022-11-05T02:03:32.945Z,9.00
2022-11-05T02:09:29.273Z,8.90
2022-11-05T02:14:31.722Z,8.90
2022-11-05T02:20:11.847Z,8.90
2022-11-05T02:25:39.234Z,9.00
2022-11-05T02:30:50.651Z,9.00
2022-11-05T02:35:59.149Z,9.10
2022-11-05T02:41:28.674Z,9.10
2022-11-05T02:46:51.827Z,9.20
2022-11-05T02:51:59.433Z,9.30
2022-11-05T02:57:03.940Z,9.40
2022-11-05T03:02:06.898Z,9.30
2022-11-05T03:07:46.903Z,9.40
2022-11-05T03:13:00.967Z,9.40
2022-11-05T03:18:22.244Z,9.40
2022-11-05T03:23:45.086Z,9.60
2022-11-05T03:28:54.683Z,9.60
2022-11-05T03:34:01.142Z,9.70
2022-11-05T03:39:08.967Z,9.80
2022-11-05T03:44:15.187Z,9.80
2022-11-05T03:49:21.518Z,9.70
2022-11-05T03:54:24.143Z,9.70
2022-11-05T03:59:28.201Z,9.80
2022-11-05T04:04:30.658Z,9.70
2022-11-05T04:09:51.770Z,9.70
2022-11-05T04:14:54.217Z,9.80
2022-11-05T04:20:15.785Z,9.90
2022-11-05T04:25:19.081Z,9.90
2022-11-05T04:30:22.813Z,9.90
2022-11-05T04:35:27.129Z,10.00
2022-11-05T04:40:30.337Z,10.00
2022-11-05T04:45:34.535Z,10.00
2022-11-05T04:50:37.433Z,10.10
2022-11-05T04:55:39.845Z,10.00
2022-11-05T05:00:42.606Z,10.00
2022-11-05T05:05:45.273Z,10.00
2022-11-05T05:10:47.914Z,10.00
2022-11-05T05:15:50.458Z,10.00
2022-11-05T05:21:16.710Z,10.10
2022-11-05T05:26:19.401Z,10.10
2022-11-05T05:31:22.789Z,10.00
2022-11-05T05:36:25.816Z,9.90
2022-11-05T05:41:28.376Z,9.90
2022-11-05T05:46:31.031Z,10.00
2022-11-05T05:51:33.834Z,9.90
2022-11-05T05:56:36.557Z,9.90
2022-11-05T06:01:39.187Z,9.90
2022-11-05T06:06:41.876Z,9.90
2022-11-05T06:11:44.612Z,9.90
2022-11-05T06:16:47.330Z,9.90
2022-11-05T06:21:49.771Z,9.90
2022-11-05T06:26:52.218Z,10.00
2022-11-05T06:31:55.000Z,9.90
2022-11-05T06:36:57.595Z,11.20
2022-11-05T06:47:22.587Z,9.70
2022-11-05T06:52:27.211Z,9.70
2022-11-05T06:57:29.772Z,9.60
2022-11-05T07:02:32.273Z,9.60
2022-11-05T07:07:34.928Z,9.60
2022-11-05T07:12:37.388Z,9.70
2022-11-05T07:17:40.875Z,9.60
2022-11-05T07:22:43.397Z,9.60
2022-11-05T07:27:45.839Z,9.60
2022-11-05T07:32:48.625Z,9.60
2022-11-05T07:37:56.625Z,9.70
2022-11-05T07:43:01.567Z,9.70
2022-11-05T07:48:04.760Z,9.70
2022-11-05T07:53:13.574Z,9.80
2022-11-05T07:58:16.517Z,9.80
2022-11-05T08:03:19.775Z,9.90
2022-11-05T08:08:22.852Z,9.90
2022-11-05T08:13:25.570Z,9.90
2022-11-05T08:18:31.874Z,9.90
2022-11-05T08:23:34.369Z,9.90
2022-11-05T08:28:36.830Z,9.80
2022-11-05T08:33:39.500Z,9.80
2022-11-05T08:38:42.020Z,9.70
2022-11-05T08:43:44.733Z,9.70
2022-11-05T08:48:47.260Z,9.70
2022-11-05T08:53:49.814Z,9.90
2022-11-05T08:58:52.440Z,9.90
2022-11-05T09:03:55.077Z,9.90
2022-11-05T09:08:57.716Z,9.90
2022-11-05T09:14:00.449Z,9.90
2022-11-05T09:19:04.808Z,9.90
2022-11-05T09:24:07.554Z,9.90
2022-11-05T09:29:14.205Z,9.90
2022-11-05T09:34:17.109Z,10.00
2022-11-05T09:39:19.864Z,10.00
2022-11-05T09:44:26.278Z,10.00
2022-11-05T09:49:41.966Z,10.00
2022-11-05T09:54:46.324Z,10.00
2022-11-05T09:59:57.919Z,10.00
2022-11-05T10:05:10.305Z,10.00
2022-11-05T10:10:40.485Z,9.90
2022-11-05T10:16:07.381Z,9.90
2022-11-05T10:21:17.265Z,9.80
2022-11-05T10:26:24.043Z,9.70
2022-11-05T10:31:35.152Z,9.80
2022-11-05T10:36:38.681Z,9.80
2022-11-05T10:41:47.192Z,9.90
2022-11-05T10:47:14.625Z,10.00
2022-11-05T10:52:20.027Z,10.00
2022-11-05T10:57:38.090Z,10.00
2022-11-05T11:02:53.145Z,10.00
2022-11-05T11:08:09.180Z,9.90
2022-11-05T11:13:30.109Z,9.80
2022-11-05T11:18:42.560Z,9.80
2022-11-05T11:23:54.915Z,9.70
2022-11-05T11:29:06.937Z,9.80
2022-11-05T11:34:21.569Z,9.80
2022-11-05T11:39:30.519Z,9.80
2022-11-05T11:44:42.830Z,9.70
2022-11-05T11:49:51.191Z,9.70
2022-11-05T11:54:54.098Z,9.80
2022-11-05T12:00:14.379Z,9.80
2022-11-05T12:05:16.818Z,10.00
2022-11-05T12:10:22.224Z,10.10
2022-11-05T12:15:56.823Z,10.00
2022-11-05T12:21:14.399Z,10.00
2022-11-05T12:26:53.393Z,10.00
2022-11-05T12:32:10.290Z,9.90
2022-11-05T12:37:37.486Z,9.90
2022-11-05T12:42:54.805Z,10.00
2022-11-05T12:48:07.118Z,9.90
2022-11-05T12:53:32.720Z,9.80
2022-11-05T12:58:40.292Z,9.80
2022-11-05T13:03:58.691Z,9.80
2022-11-05T13:09:07.801Z,9.90
2022-11-05T13:14:18.567Z,9.90
2022-11-05T13:19:26.371Z,9.90
2022-11-05T13:24:36.205Z,9.80
2022-11-05T13:29:51.461Z,9.80
2022-11-05T13:34:58.682Z,9.70
2022-11-05T13:40:07.334Z,9.70
2022-11-05T13:45:15.522Z,9.80
2022-11-05T13:50:30.159Z,9.70
2022-11-05T13:55:51.101Z,9.80
2022-11-05T14:01:12.013Z,9.70
2022-11-05T14:06:22.293Z,9.70
2022-11-05T14:11:51.783Z,9.80
2022-11-05T14:17:09.801Z,9.80
2022-11-05T14:22:40.449Z,9.70
2022-11-05T14:27:44.633Z,9.70
2022-11-05T14:32:50.083Z,9.70
2022-11-05T14:37:54.374Z,9.70
2022-11-05T14:43:14.886Z,9.60
2022-11-05T14:48:37.564Z,9.60
2022-11-05T14:53:40.890Z,9.60
2022-11-05T14:58:44.855Z,9.60
2022-11-05T15:04:18.286Z,9.60
2022-11-05T15:09:29.599Z,9.60
2022-11-05T15:14:40.957Z,9.60
2022-11-05T15:19:44.666Z,9.50
2022-11-05T15:24:48.058Z,9.50
2022-11-05T15:29:50.668Z,9.50
2022-11-05T15:34:55.589Z,9.50
2022-11-05T15:39:58.491Z,9.50
2022-11-05T15:45:01.009Z,9.50
2022-11-05T15:50:15.675Z,9.50
2022-11-05T15:55:24.682Z,9.40
2022-11-05T16:00:29.933Z,9.40
2022-11-05T16:05:36.041Z,9.40
2022-11-05T16:10:39.261Z,9.40
2022-11-05T16:15:54.187Z,9.40
2022-11-05T16:21:04.367Z,9.40
2022-11-05T16:32:00.094Z,9.30
2022-11-05T16:37:05.217Z,9.30
2022-11-05T16:42:33.867Z,9.30
2022-11-05T16:47:38.129Z,9.30
2022-11-05T16:52:40.586Z,9.20
2022-11-05T16:57:45.566Z,9.20
2022-11-05T17:02:48.373Z,9.20
2022-11-05T17:07:51.621Z,9.20
2022-11-05T17:12:54.265Z,9.20
2022-11-05T17:17:57.708Z,9.20
2022-11-05T17:23:01.480Z,9.20
2022-11-05T17:28:04.274Z,9.10
2022-11-05T17:33:07.543Z,9.10
2022-11-05T17:38:11.037Z,9.00
2022-11-05T17:43:13.949Z,9.00
2022-11-05T17:48:17.442Z,9.00
2022-11-05T17:53:20.111Z,8.90
2022-11-05T17:58:22.729Z,8.80
2022-11-05T18:03:25.224Z,8.80
2022-11-05T18:08:27.817Z,8.70
2022-11-05T18:13:30.281Z,8.60
2022-11-05T18:18:32.764Z,8.50
2022-11-05T18:23:35.393Z,8.60
2022-11-05T18:28:37.979Z,8.50
2022-11-05T18:33:42.557Z,8.50
2022-11-05T18:38:45.301Z,8.60
2022-11-05T18:43:48.054Z,8.60
2022-11-05T18:48:50.646Z,8.50
2022-11-05T18:53:54.458Z,8.60
2022-11-05T18:59:22.123Z,8.50
2022-11-05T19:04:19.828Z,8.30
2022-11-05T19:09:22.634Z,8.30
2022-11-05T19:14:25.106Z,8.10
2022-11-05T19:19:28.044Z,8.10
2022-11-05T19:24:30.637Z,8.00
2022-11-05T19:29:33.359Z,7.90
2022-11-05T19:34:36.782Z,7.90
2022-11-05T19:39:40.650Z,7.90
2022-11-05T19:44:43.816Z,7.90
2022-11-05T19:49:46.285Z,7.70
2022-11-05T19:54:48.757Z,7.70
2022-11-05T19:59:51.300Z,7.60
2022-11-05T20:04:56.790Z,7.60
2022-11-05T20:09:59.642Z,7.60
2022-11-05T20:15:05.198Z,7.50
2022-11-05T20:20:08.381Z,7.50
2022-11-05T20:25:11.302Z,7.40
2022-11-05T20:30:13.870Z,7.40
2022-11-05T20:35:16.641Z,7.40
2022-11-05T20:40:19.402Z,7.50
2022-11-05T20:45:21.945Z,7.40
2022-11-05T20:50:24.409Z,7.20
2022-11-05T20:55:27.010Z,7.20
2022-11-05T21:00:29.477Z,6.90
2022-11-05T21:05:35.660Z,6.80
2022-11-05T21:10:38.487Z,6.70
2022-11-05T21:15:49.288Z,6.70
2022-11-05T21:20:52.336Z,6.50
2022-11-05T21:25:55.381Z,6.10
2022-11-05T21:31:01.952Z,6.00
2022-11-05T21:36:10.384Z,5.90
2022-11-05T21:41:14.175Z,5.90
2022-11-05T21:46:16.797Z,5.80
2022-11-05T21:51:38.000Z,5.70
2022-11-05T21:57:01.983Z,5.70
2022-11-05T22:02:05.477Z,5.50
2022-11-05T22:07:10.169Z,5.40
2022-11-05T22:12:13.094Z,5.40
2022-11-05T22:17:15.823Z,5.30
2022-11-05T22:22:18.452Z,5.30
2022-11-05T22:27:22.432Z,4.90
2022-11-05T22:32:25.165Z,4.90
2022-11-05T22:37:27.742Z,4.70
2022-11-05T22:42:31.505Z,4.80
2022-11-05T22:47:34.172Z,4.80
2022-11-05T22:52:36.708Z,4.80
2022-11-05T22:57:39.449Z,5.00
2022-11-05T23:02:42.180Z,5.10
2022-11-05T23:08:03.329Z,5.00
2022-11-05T23:13:07.755Z,5.00
2022-11-05T23:18:29.123Z,5.00
2022-11-05T23:23:50.057Z,4.90
2022-11-05T23:28:52.509Z,5.10
2022-11-05T23:33:55.022Z,5.10
2022-11-05T23:38:57.818Z,5.00
2022-11-05T23:44:19.136Z,4.80
2022-11-05T23:49:22.083Z,4.70
2022-11-05T23:54:24.728Z,4.50
2022-11-05T23:59:27.176Z,4.40
